sensor_id;sensor_type;location;lat;lon;timestamp;temperature;humidity
6903;DHT22;20232;49.408;8.702;2022-11-20T05:01:40;5.70;99.90
6903;DHT22;20232;49.408;8.702;2022-11-20T05:04:05;5.60;99.90
6903;DHT22;20232;49.408;8.702;2022-11-20T05:06:31;5.50;99.90
6903;DHT22;20232;49.408;8.702;2022-11-20T05:08:57;5.50;99.90
6903;DHT22;20232;49.408;8.702;2022-11-20T05:11:23;5.40;99.90
6903;DHT22;20232;49.408;8.702;2022-11-20T05:13:50;5.50;99.90
6903;DHT22;20232;49.408;8.702;2022-11-20T05:16:18;5.50;99.90
6903;DHT22;20232;49.408;8.702;2022-11-20T05:18:44;5.50;99.90
6903;DHT22;20232;49.408;8.702;2022-11-20T05:21:11;5.60;99.90
6903;DHT22;20232;49.408;8.702;2022-11-20T05:23:37;5.60;99.90
6903;DHT22;20232;49.408;8.702;2022-11-20T05:26:03;5.70;99.90
6903;DHT22;20232;49.408;8.702;2022-11-20T05:28:30;5.80;99.90
6903;DHT22;20232;49.408;8.702;2022-11-20T05:31:04;5.90;99.90
6903;DHT22;20232;49.408;8.702;2022-11-20T05:33:30;5.90;99.90
6903;DHT22;20232;49.408;8.702;2022-11-20T05:35:58;6.00;99.90
6903;DHT22;20232;49.408;8.702;2022-11-20T05:38:23;6.00;99.90
6903;DHT22;20232;49.408;8.702;2022-11-20T05:40:49;6.10;99.90
6903;DHT22;20232;49.408;8.702;2022-11-20T05:43:14;6.10;99.90
6903;DHT22;20232;49.408;8.702;2022-11-20T05:45:40;6.20;99.90
6903;DHT22;20232;49.408;8.702;2022-11-20T05:48:06;6.20;99.90
6903;DHT22;20232;49.408;8.702;2022-11-20T05:50:31;6.20;99.90
6903;DHT22;20232;49.408;8.702;2022-11-20T05:53:00;6.30;99.90
6903;DHT22;20232;49.408;8.702;2022-11-20T05:55:26;6.30;99.90
6903;DHT22;20232;49.408;8.702;2022-11-20T05:57:53;6.30;99.90
6903;DHT22;20232;49.408;8.702;2022-11-20T06:00:20;6.40;99.90
6903;DHT22;20232;49.408;8.702;2022-11-20T06:02:46;6.40;99.90
6903;DHT22;20232;49.408;8.702;2022-11-20T06:05:11;6.40;99.90
6903;DHT22;20232;49.408;8.702;2022-11-20T06:07:37;6.40;99.90
6903;DHT22;20232;49.408;8.702;2022-11-20T06:10:02;6.40;99.90
6903;DHT22;20232;49.408;8.702;2022-11-20T06:12:28;6.40;99.90
6903;DHT22;20232;49.408;8.702;2022-11-20T06:14:56;6.40;99.90
6903;DHT22;20232;49.408;8.702;2022-11-20T06:17:21;6.40;99.90
6903;DHT22;20232;49.408;8.702;2022-11-20T06:19:47;6.40;99.90
6903;DHT22;20232;49.408;8.702;2022-11-20T06:22:12;6.40;99.90
6903;DHT22;20232;49.408;8.702;2022-11-20T06:24:38;6.40;99.90
6903;DHT22;20232;49.408;8.702;2022-11-20T06:27:03;6.40;99.90
6903;DHT22;20232;49.408;8.702;2022-11-20T06:29:29;6.40;99.90
6903;DHT22;20232;49.408;8.702;2022-11-20T06:31:54;6.50;99.90
6903;DHT22;20232;49.408;8.702;2022-11-20T06:34:20;6.60;99.90
6903;DHT22;20232;49.408;8.702;2022-11-20T06:36:45;6.60;99.90
6903;DHT22;20232;49.408;8.702;2022-11-20T06:39:11;6.60;99.90
6903;DHT22;20232;49.408;8.702;2022-11-20T06:41:37;6.60;99.90
6903;DHT22;20232;49.408;8.702;2022-11-20T06:44:04;6.70;99.90
6903;DHT22;20232;49.408;8.702;2022-11-20T06:46:29;6.70;99.90
6903;DHT22;20232;49.408;8.702;2022-11-20T06:48:55;6.60;99.90
6903;DHT22;20232;49.408;8.702;2022-11-20T06:51:21;6.70;99.90
6903;DHT22;20232;49.408;8.702;2022-11-20T06:53:46;6.70;99.90
6903;DHT22;20232;49.408;8.702;2022-11-20T06:56:12;6.80;99.90
6903;DHT22;20232;49.408;8.702;2022-11-20T06:58:37;6.80;99.90
6903;DHT22;20232;49.408;8.702;2022-11-20T07:01:09;6.80;99.90
6903;DHT22;20232;49.408;8.702;2022-11-20T07:03:35;7.00;99.90
6903;DHT22;20232;49.408;8.702;2022-11-20T07:06:02;7.00;99.90
6903;DHT22;20232;49.408;8.702;2022-11-20T07:08:28;7.10;99.90
6903;DHT22;20232;49.408;8.702;2022-11-20T07:10:57;7.00;99.90
6903;DHT22;20232;49.408;8.702;2022-11-20T07:13:23;7.00;99.90
6903;DHT22;20232;49.408;8.702;2022-11-20T07:15:49;7.10;99.90
6903;DHT22;20232;49.408;8.702;2022-11-20T07:18:14;7.10;99.90
6903;DHT22;20232;49.408;8.702;2022-11-20T07:20:40;7.00;99.90
6903;DHT22;20232;49.408;8.702;2022-11-20T07:23:06;7.00;99.90
6903;DHT22;20232;49.408;8.702;2022-11-20T07:25:31;7.00;99.90
6903;DHT22;20232;49.408;8.702;2022-11-20T07:27:58;7.00;99.90
6903;DHT22;20232;49.408;8.702;2022-11-20T07:30:24;6.90;99.90
6903;DHT22;20232;49.408;8.702;2022-11-20T07:32:54;6.90;99.90
6903;DHT22;20232;49.408;8.702;2022-11-20T07:35:20;7.00;99.90
6903;DHT22;20232;49.408;8.702;2022-11-20T07:37:46;7.00;99.90
6903;DHT22;20232;49.408;8.702;2022-11-20T07:40:14;7.00;99.90
6903;DHT22;20232;49.408;8.702;2022-11-20T07:42:47;7.00;99.90
6903;DHT22;20232;49.408;8.702;2022-11-20T07:45:13;7.00;99.90
6903;DHT22;20232;49.408;8.702;2022-11-20T07:47:38;7.00;99.90
6903;DHT22;20232;49.408;8.702;2022-11-20T07:50:04;7.00;99.90
6903;DHT22;20232;49.408;8.702;2022-11-20T07:52:30;7.00;99.90
6903;DHT22;20232;49.408;8.702;2022-11-20T07:54:56;7.00;99.90
6903;DHT22;20232;49.408;8.702;2022-11-20T07:57:21;7.00;99.90
6903;DHT22;20232;49.408;8.702;2022-11-20T07:59:47;7.00;99.90
6903;DHT22;20232;49.408;8.702;2022-11-20T08:02:12;7.10;99.90
6903;DHT22;20232;49.408;8.702;2022-11-20T08:04:38;7.20;99.90
6903;DHT22;20232;49.408;8.702;2022-11-20T08:07:03;7.20;99.90
6903;DHT22;20232;49.408;8.702;2022-11-20T08:09:29;7.20;99.90
6903;DHT22;20232;49.408;8.702;2022-11-20T08:11:55;7.20;99.90
6903;DHT22;20232;49.408;8.702;2022-11-20T08:14:39;7.20;99.90
6903;DHT22;20232;49.408;8.702;2022-11-20T08:17:04;7.10;99.90
6903;DHT22;20232;49.408;8.702;2022-11-20T08:19:30;7.20;99.90
6903;DHT22;20232;49.408;8.702;2022-11-20T08:21:55;7.20;99.90
6903;DHT22;20232;49.408;8.702;2022-11-20T08:24:21;7.20;99.90
6903;DHT22;20232;49.408;8.702;2022-11-20T08:26:46;7.20;99.90
6903;DHT22;20232;49.408;8.702;2022-11-20T08:29:12;7.30;99.90
6903;DHT22;20232;49.408;8.702;2022-11-20T08:31:38;7.30;99.90
6903;DHT22;20232;49.408;8.702;2022-11-20T08:34:03;7.30;99.90
6903;DHT22;20232;49.408;8.702;2022-11-20T08:36:33;7.30;99.90
6903;DHT22;20232;49.408;8.702;2022-11-20T08:38:59;7.40;99.90
6903;DHT22;20232;49.408;8.702;2022-11-20T08:41:24;7.40;99.90
6903;DHT22;20232;49.408;8.702;2022-11-20T08:43:59;7.40;99.90
6903;DHT22;20232;49.408;8.702;2022-11-20T08:46:26;7.50;99.90
6903;DHT22;20232;49.408;8.702;2022-11-20T08:48:52;7.50;99.90
6903;DHT22;20232;49.408;8.702;2022-11-20T08:51:19;7.50;99.90
6903;DHT22;20232;49.408;8.702;2022-11-20T08:53:45;7.50;99.90
6903;DHT22;20232;49.408;8.702;2022-11-20T08:56:11;7.50;99.90
6903;DHT22;20232;49.408;8.702;2022-11-20T08:58:37;7.50;99.90
6903;DHT22;20232;49.408;8.702;2022-11-20T09:01:03;7.50;99.90
6903;DHT22;20232;49.408;8.702;2022-11-20T09:03:29;7.50;99.90
6903;DHT22;20232;49.408;8.702;2022-11-20T09:05:59;7.50;99.90
6903;DHT22;20232;49.408;8.702;2022-11-20T09:08:25;7.50;99.90
6903;DHT22;20232;49.408;8.702;2022-11-20T09:10:54;7.50;99.90
6903;DHT22;20232;49.408;8.702;2022-11-20T09:13:21;7.50;99.90
6903;DHT22;20232;49.408;8.702;2022-11-20T09:15:47;7.50;99.90
6903;DHT22;20232;49.408;8.702;2022-11-20T09:18:17;7.50;99.90
6903;DHT22;20232;49.408;8.702;2022-11-20T09:20:42;7.50;99.90
6903;DHT22;20232;49.408;8.702;2022-11-20T09:23:08;7.50;99.90
6903;DHT22;20232;49.408;8.702;2022-11-20T09:25:34;7.60;99.90
6903;DHT22;20232;49.408;8.702;2022-11-20T09:27:59;7.60;99.90
6903;DHT22;20232;49.408;8.702;2022-11-20T09:30:26;7.60;99.90
6903;DHT22;20232;49.408;8.702;2022-11-20T09:32:52;7.70;99.90
6903;DHT22;20232;49.408;8.702;2022-11-20T09:35:17;7.60;99.90
6903;DHT22;20232;49.408;8.702;2022-11-20T09:37:43;7.70;99.90
6903;DHT22;20232;49.408;8.702;2022-11-20T09:40:28;7.70;99.90
6903;DHT22;20232;49.408;8.702;2022-11-20T09:43:02;7.70;99.90
6903;DHT22;20232;49.408;8.702;2022-11-20T09:51:08;7.80;99.90
6903;DHT22;20232;49.408;8.702;2022-11-20T09:56:25;7.80;99.90
6903;DHT22;20232;49.408;8.702;2022-11-20T09:58:53;7.80;99.90
6903;DHT22;20232;49.408;8.702;2022-11-20T10:01:21;7.80;99.90
6903;DHT22;20232;49.408;8.702;2022-11-20T10:06:31;7.80;99.90
6903;DHT22;20232;49.408;8.702;2022-11-20T10:17:15;7.80;99.90
6903;DHT22;20232;49.408;8.702;2022-11-20T10:20:10;7.80;99.90
6903;DHT22;20232;49.408;8.702;2022-11-20T10:23:01;7.80;99.90
6903;DHT22;20232;49.408;8.702;2022-11-20T10:25:39;7.90;99.90
6903;DHT22;20232;49.408;8.702;2022-11-20T10:30:36;7.90;99.90
6903;DHT22;20232;49.408;8.702;2022-11-20T10:33:19;7.90;99.90
6903;DHT22;20232;49.408;8.702;2022-11-20T10:36:06;8.00;99.90
6903;DHT22;20232;49.408;8.702;2022-11-20T10:38:41;8.00;99.90
6903;DHT22;20232;49.408;8.702;2022-11-20T10:41:23;8.00;99.90
6903;DHT22;20232;49.408;8.702;2022-11-20T10:44:02;8.00;99.90
6903;DHT22;20232;49.408;8.702;2022-11-20T10:46:34;8.00;99.90
6903;DHT22;20232;49.408;8.702;2022-11-20T10:49:05;8.00;99.90
6903;DHT22;20232;49.408;8.702;2022-11-20T10:51:38;8.10;99.90
6903;DHT22;20232;49.408;8.702;2022-11-20T11:01:44;8.30;99.90
6903;DHT22;20232;49.408;8.702;2022-11-20T11:04:26;8.20;99.90
6903;DHT22;20232;49.408;8.702;2022-11-20T11:07:04;8.30;99.90
6903;DHT22;20232;49.408;8.702;2022-11-20T11:09:37;8.30;99.90
6903;DHT22;20232;49.408;8.702;2022-11-20T11:12:08;8.30;99.90
6903;DHT22;20232;49.408;8.702;2022-11-20T11:14:51;8.30;99.90
6903;DHT22;20232;49.408;8.702;2022-11-20T11:22:45;8.10;99.90
6903;DHT22;20232;49.408;8.702;2022-11-20T11:27:51;8.20;99.90
6903;DHT22;20232;49.408;8.702;2022-11-20T11:30:19;8.40;99.90
6903;DHT22;20232;49.408;8.702;2022-11-20T11:32:45;8.40;99.90
6903;DHT22;20232;49.408;8.702;2022-11-20T11:35:28;8.50;99.90
6903;DHT22;20232;49.408;8.702;2022-11-20T11:38:06;8.60;99.90
6903;DHT22;20232;49.408;8.702;2022-11-20T11:40:35;8.70;99.90
6903;DHT22;20232;49.408;8.702;2022-11-20T11:43:04;8.90;99.90
6903;DHT22;20232;49.408;8.702;2022-11-20T11:45:30;9.00;99.90
6903;DHT22;20232;49.408;8.702;2022-11-20T11:47:58;9.00;99.90
6903;DHT22;20232;49.408;8.702;2022-11-20T11:50:27;9.00;99.90
6903;DHT22;20232;49.408;8.702;2022-11-20T12:04:21;9.40;99.90
6903;DHT22;20232;49.408;8.702;2022-11-20T12:06:57;9.40;99.90
6903;DHT22;20232;49.408;8.702;2022-11-20T12:09:26;9.40;99.90
6903;DHT22;20232;49.408;8.702;2022-11-20T12:11:58;9.40;99.90
6903;DHT22;20232;49.408;8.702;2022-11-20T12:14:37;9.50;99.90
6903;DHT22;20232;49.408;8.702;2022-11-20T12:17:04;9.50;99.90
6903;DHT22;20232;49.408;8.702;2022-11-20T12:19:33;9.50;99.90
6903;DHT22;20232;49.408;8.702;2022-11-20T12:27:59;9.60;99.90
6903;DHT22;20232;49.408;8.702;2022-11-20T12:30:28;9.70;99.90
6903;DHT22;20232;49.408;8.702;2022-11-20T12:47:59;9.50;99.90
6903;DHT22;20232;49.408;8.702;2022-11-20T12:53:38;9.40;99.90
6903;DHT22;20232;49.408;8.702;2022-11-20T12:59:00;9.40;99.90
6903;DHT22;20232;49.408;8.702;2022-11-20T13:01:43;9.40;99.90
6903;DHT22;20232;49.408;8.702;2022-11-20T13:06:48;9.50;99.90
6903;DHT22;20232;49.408;8.702;2022-11-20T13:09:16;9.60;99.90
6903;DHT22;20232;49.408;8.702;2022-11-20T13:15:08;9.50;99.90
6903;DHT22;20232;49.408;8.702;2022-11-20T13:17:58;9.40;99.90
6903;DHT22;20232;49.408;8.702;2022-11-20T13:20:24;9.50;99.90
6903;DHT22;20232;49.408;8.702;2022-11-20T13:22:54;9.60;99.90
6903;DHT22;20232;49.408;8.702;2022-11-20T13:25:37;9.70;99.90
6903;DHT22;20232;49.408;8.702;2022-11-20T13:30:36;9.80;99.90
6903;DHT22;20232;49.408;8.702;2022-11-20T13:33:21;9.90;99.90
6903;DHT22;20232;49.408;8.702;2022-11-20T13:38:24;9.90;99.90
6903;DHT22;20232;49.408;8.702;2022-11-20T13:40:55;9.90;99.90
6903;DHT22;20232;49.408;8.702;2022-11-20T13:43:37;10.10;99.90
6903;DHT22;20232;49.408;8.702;2022-11-20T13:46:08;10.40;99.90
6903;DHT22;20232;49.408;8.702;2022-11-20T13:48:44;10.70;99.90
6903;DHT22;20232;49.408;8.702;2022-11-20T13:54:20;10.80;99.90
6903;DHT22;20232;49.408;8.702;2022-11-20T13:57:16;10.70;99.90
6903;DHT22;20232;49.408;8.702;2022-11-20T14:02:22;10.20;99.90
6903;DHT22;20232;49.408;8.702;2022-11-20T14:04:51;10.10;99.90
6903;DHT22;20232;49.408;8.702;2022-11-20T14:07:25;10.10;99.90
6903;DHT22;20232;49.408;8.702;2022-11-20T14:09:54;10.10;99.90
6903;DHT22;20232;49.408;8.702;2022-11-20T14:12:22;10.10;99.90
6903;DHT22;20232;49.408;8.702;2022-11-20T14:14:50;10.00;99.90
6903;DHT22;20232;49.408;8.702;2022-11-20T14:17:20;10.00;99.90
6903;DHT22;20232;49.408;8.702;2022-11-20T14:19:47;9.80;99.90
6903;DHT22;20232;49.408;8.702;2022-11-20T14:22:26;9.80;99.90
6903;DHT22;20232;49.408;8.702;2022-11-20T14:27:41;9.60;99.90
6903;DHT22;20232;49.408;8.702;2022-11-20T14:30:22;9.60;99.90
6903;DHT22;20232;49.408;8.702;2022-11-20T14:32:48;9.50;99.90
6903;DHT22;20232;49.408;8.702;2022-11-20T14:35:25;9.60;99.90
6903;DHT22;20232;49.408;8.702;2022-11-20T14:37:51;9.50;99.90
6903;DHT22;20232;49.408;8.702;2022-11-20T14:40:30;9.50;99.90
6903;DHT22;20232;49.408;8.702;2022-11-20T14:42:57;9.30;99.90
6903;DHT22;20232;49.408;8.702;2022-11-20T14:45:24;9.20;99.90
6903;DHT22;20232;49.408;8.702;2022-11-20T14:47:52;9.10;99.90
6903;DHT22;20232;49.408;8.702;2022-11-20T14:50:22;9.00;99.90
6903;DHT22;20232;49.408;8.702;2022-11-20T14:52:55;8.90;99.90
6903;DHT22;20232;49.408;8.702;2022-11-20T14:55:34;8.70;99.90
6903;DHT22;20232;49.408;8.702;2022-11-20T14:58:27;8.60;99.90
6903;DHT22;20232;49.408;8.702;2022-11-20T15:01:01;8.50;99.90
6903;DHT22;20232;49.408;8.702;2022-11-20T15:03:36;8.40;99.90
6903;DHT22;20232;49.408;8.702;2022-11-20T15:06:03;8.20;99.90
6903;DHT22;20232;49.408;8.702;2022-11-20T15:08:29;8.10;99.90
6903;DHT22;20232;49.408;8.702;2022-11-20T15:10:55;8.10;99.90
6903;DHT22;20232;49.408;8.702;2022-11-20T15:15:54;8.00;99.90
6903;DHT22;20232;49.408;8.702;2022-11-20T15:18:37;7.90;99.90
6903;DHT22;20232;49.408;8.702;2022-11-20T15:21:10;7.90;99.90
6903;DHT22;20232;49.408;8.702;2022-11-20T15:23:36;7.90;99.90
6903;DHT22;20232;49.408;8.702;2022-11-20T15:26:10;7.80;99.90
6903;DHT22;20232;49.408;8.702;2022-11-20T15:28:39;7.70;99.90
6903;DHT22;20232;49.408;8.702;2022-11-20T15:31:06;7.60;99.90
6903;DHT22;20232;49.408;8.702;2022-11-20T15:33:32;7.50;99.90
6903;DHT22;20232;49.408;8.702;2022-11-20T15:35:58;7.50;99.90
6903;DHT22;20232;49.408;8.702;2022-11-20T15:38:24;7.40;99.90
6903;DHT22;20232;49.408;8.702;2022-11-20T15:40:50;7.40;99.90
6903;DHT22;20232;49.408;8.702;2022-11-20T15:43:15;7.40;99.90
6903;DHT22;20232;49.408;8.702;2022-11-20T15:45:46;7.40;99.90
6903;DHT22;20232;49.408;8.702;2022-11-20T15:48:25;7.40;99.90
6903;DHT22;20232;49.408;8.702;2022-11-20T15:50:54;7.30;99.90
6903;DHT22;20232;49.408;8.702;2022-11-20T15:53:21;7.30;99.90
6903;DHT22;20232;49.408;8.702;2022-11-20T15:55:47;7.30;99.90
6903;DHT22;20232;49.408;8.702;2022-11-20T15:58:12;7.30;99.90
6903;DHT22;20232;49.408;8.702;2022-11-20T16:00:38;7.30;99.90
6903;DHT22;20232;49.408;8.702;2022-11-20T16:03:03;7.30;99.90
6903;DHT22;20232;49.408;8.702;2022-11-20T16:05:29;7.30;99.90
6903;DHT22;20232;49.408;8.702;2022-11-20T16:07:55;7.30;99.90
6903;DHT22;20232;49.408;8.702;2022-11-20T16:10:21;7.30;99.90
6903;DHT22;20232;49.408;8.702;2022-11-20T16:12:47;7.20;99.90
6903;DHT22;20232;49.408;8.702;2022-11-20T16:15:31;7.30;99.90
6903;DHT22;20232;49.408;8.702;2022-11-20T16:18:17;7.20;99.90
6903;DHT22;20232;49.408;8.702;2022-11-20T16:20:48;7.30;99.90
6903;DHT22;20232;49.408;8.702;2022-11-20T16:23:14;7.30;99.90
6903;DHT22;20232;49.408;8.702;2022-11-20T16:25:41;7.40;99.90
6903;DHT22;20232;49.408;8.702;2022-11-20T16:28:07;7.40;99.90
6903;DHT22;20232;49.408;8.702;2022-11-20T16:30:33;7.40;99.90
6903;DHT22;20232;49.408;8.702;2022-11-20T16:33:00;7.50;99.90
6903;DHT22;20232;49.408;8.702;2022-11-20T16:35:30;7.50;99.90
6903;DHT22;20232;49.408;8.702;2022-11-20T16:37:57;7.40;99.90
6903;DHT22;20232;49.408;8.702;2022-11-20T16:40:24;7.40;99.90
6903;DHT22;20232;49.408;8.702;2022-11-20T16:42:50;7.40;99.90
6903;DHT22;20232;49.408;8.702;2022-11-20T16:45:16;7.40;99.90
6903;DHT22;20232;49.408;8.702;2022-11-20T16:47:42;7.40;99.90
6903;DHT22;20232;49.408;8.702;2022-11-20T16:50:08;7.40;99.90
6903;DHT22;20232;49.408;8.702;2022-11-20T16:52:33;7.40;99.90
6903;DHT22;20232;49.408;8.702;2022-11-20T16:54:59;7.40;99.90
6903;DHT22;20232;49.408;8.702;2022-11-20T16:57:27;7.50;99.90
6903;DHT22;20232;49.408;8.702;2022-11-20T16:59:54;7.60;99.90
6903;DHT22;20232;49.408;8.702;2022-11-20T17:02:19;7.60;99.90
6903;DHT22;20232;49.408;8.702;2022-11-20T17:04:45;7.70;99.90
6903;DHT22;20232;49.408;8.702;2022-11-20T17:07:10;7.70;99.90
6903;DHT22;20232;49.408;8.702;2022-11-20T17:09:37;7.70;99.90
6903;DHT22;20232;49.408;8.702;2022-11-20T17:12:03;7.80;99.90
6903;DHT22;20232;49.408;8.702;2022-11-20T17:14:28;7.80;99.90
6903;DHT22;20232;49.408;8.702;2022-11-20T17:16:54;7.80;99.90
6903;DHT22;20232;49.408;8.702;2022-11-20T17:19:19;7.90;99.90
6903;DHT22;20232;49.408;8.702;2022-11-20T17:21:45;8.00;99.90
6903;DHT22;20232;49.408;8.702;2022-11-20T17:24:11;8.00;99.90
6903;DHT22;20232;49.408;8.702;2022-11-20T17:26:39;8.00;99.90
6903;DHT22;20232;49.408;8.702;2022-11-20T17:29:07;8.00;99.90
6903;DHT22;20232;49.408;8.702;2022-11-20T17:31:35;7.90;99.90
6903;DHT22;20232;49.408;8.702;2022-11-20T17:34:03;7.90;99.90
6903;DHT22;20232;49.408;8.702;2022-11-20T17:36:29;7.80;99.90
6903;DHT22;20232;49.408;8.702;2022-11-20T17:38:55;7.70;99.90
6903;DHT22;20232;49.408;8.702;2022-11-20T17:41:23;7.80;99.90
6903;DHT22;20232;49.408;8.702;2022-11-20T17:43:53;7.70;99.90
6903;DHT22;20232;49.408;8.702;2022-11-20T17:46:21;7.70;99.90
6903;DHT22;20232;49.408;8.702;2022-11-20T17:48:47;7.70;99.90
6903;DHT22;20232;49.408;8.702;2022-11-20T17:51:21;7.60;99.90
6903;DHT22;20232;49.408;8.702;2022-11-20T17:53:53;7.70;99.90
6903;DHT22;20232;49.408;8.702;2022-11-20T17:56:19;7.70;99.90
6903;DHT22;20232;49.408;8.702;2022-11-20T17:59:04;7.70;99.90
6903;DHT22;20232;49.408;8.702;2022-11-20T18:01:30;7.60;99.90
6903;DHT22;20232;49.408;8.702;2022-11-20T18:03:57;7.70;99.90
6903;DHT22;20232;49.408;8.702;2022-11-20T18:06:24;7.60;99.90
6903;DHT22;20232;49.408;8.702;2022-11-20T18:08:50;7.60;99.90
6903;DHT22;20232;49.408;8.702;2022-11-20T18:11:17;7.60;99.90
6903;DHT22;20232;49.408;8.702;2022-11-20T18:13:45;7.50;99.90
6903;DHT22;20232;49.408;8.702;2022-11-20T18:16:31;7.50;99.90
6903;DHT22;20232;49.408;8.702;2022-11-20T18:18:58;7.60;99.90
6903;DHT22;20232;49.408;8.702;2022-11-20T18:21:26;7.60;99.90
6903;DHT22;20232;49.408;8.702;2022-11-20T18:23:53;7.60;99.90
6903;DHT22;20232;49.408;8.702;2022-11-20T18:26:19;7.50;99.90
6903;DHT22;20232;49.408;8.702;2022-11-20T18:28:45;7.50;99.90
6903;DHT22;20232;49.408;8.702;2022-11-20T18:31:11;7.50;99.90
6903;DHT22;20232;49.408;8.702;2022-11-20T18:33:37;7.50;99.90
6903;DHT22;20232;49.408;8.702;2022-11-20T18:36:16;7.40;99.90
6903;DHT22;20232;49.408;8.702;2022-11-20T18:38:44;7.40;99.90
6903;DHT22;20232;49.408;8.702;2022-11-20T18:41:11;7.50;99.90
6903;DHT22;20232;49.408;8.702;2022-11-20T18:43:56;7.50;99.90
6903;DHT22;20232;49.408;8.702;2022-11-20T18:46:40;7.50;99.90
6903;DHT22;20232;49.408;8.702;2022-11-20T18:49:07;7.40;99.90
6903;DHT22;20232;49.408;8.702;2022-11-20T18:51:33;7.40;99.90
6903;DHT22;20232;49.408;8.702;2022-11-20T18:53:58;7.30;99.90
6903;DHT22;20232;49.408;8.702;2022-11-20T18:56:24;7.20;99.90
6903;DHT22;20232;49.408;8.702;2022-11-20T18:58:49;7.20;99.90
6903;DHT22;20232;49.408;8.702;2022-11-20T19:01:15;7.20;99.90
6903;DHT22;20232;49.408;8.702;2022-11-20T19:03:41;7.20;99.90
6903;DHT22;20232;49.408;8.702;2022-11-20T19:06:12;7.20;99.90
6903;DHT22;20232;49.408;8.702;2022-11-20T19:08:39;7.20;99.90
6903;DHT22;20232;49.408;8.702;2022-11-20T19:11:08;7.20;99.90
6903;DHT22;20232;49.408;8.702;2022-11-20T19:13:35;7.20;99.90
6903;DHT22;20232;49.408;8.702;2022-11-20T19:16:06;7.10;99.90
6903;DHT22;20232;49.408;8.702;2022-11-20T19:18:31;7.10;99.90
6903;DHT22;20232;49.408;8.702;2022-11-20T19:21:09;7.10;99.90
6903;DHT22;20232;49.408;8.702;2022-11-20T19:23:35;7.10;99.90
6903;DHT22;20232;49.408;8.702;2022-11-20T19:26:01;7.10;99.90
6903;DHT22;20232;49.408;8.702;2022-11-20T19:28:29;7.10;99.90
6903;DHT22;20232;49.408;8.702;2022-11-20T19:30:55;7.10;99.90
6903;DHT22;20232;49.408;8.702;2022-11-20T19:33:26;7.00;99.90
6903;DHT22;20232;49.408;8.702;2022-11-20T19:35:51;7.00;99.90
6903;DHT22;20232;49.408;8.702;2022-11-20T19:38:17;7.00;99.90
6903;DHT22;20232;49.408;8.702;2022-11-20T19:40:43;7.00;99.90
6903;DHT22;20232;49.408;8.702;2022-11-20T19:43:08;7.00;99.90
6903;DHT22;20232;49.408;8.702;2022-11-20T19:45:34;7.00;99.90
6903;DHT22;20232;49.408;8.702;2022-11-20T19:47:59;7.00;99.90
6903;DHT22;20232;49.408;8.702;2022-11-20T19:50:25;7.00;99.90
6903;DHT22;20232;49.408;8.702;2022-11-20T19:52:50;7.00;99.90
6903;DHT22;20232;49.408;8.702;2022-11-20T19:55:16;7.00;99.90
6903;DHT22;20232;49.408;8.702;2022-11-20T19:57:41;7.00;99.90
6903;DHT22;20232;49.408;8.702;2022-11-20T20:00:08;7.00;99.90
6903;DHT22;20232;49.408;8.702;2022-11-20T20:02:34;7.00;99.90
6903;DHT22;20232;49.408;8.702;2022-11-20T20:04:59;6.90;99.90
6903;DHT22;20232;49.408;8.702;2022-11-20T20:07:25;6.90;99.90
6903;DHT22;20232;49.408;8.702;2022-11-20T20:09:50;6.90;99.90
6903;DHT22;20232;49.408;8.702;2022-11-20T20:12:16;6.90;99.90
6903;DHT22;20232;49.408;8.702;2022-11-20T20:14:41;6.90;99.90
6903;DHT22;20232;49.408;8.702;2022-11-20T20:17:07;6.90;99.90
6903;DHT22;20232;49.408;8.702;2022-11-20T20:19:32;6.90;99.90
6903;DHT22;20232;49.408;8.702;2022-11-20T20:21:58;6.90;99.90
6903;DHT22;20232;49.408;8.702;2022-11-20T20:24:26;6.90;99.90
6903;DHT22;20232;49.408;8.702;2022-11-20T20:26:52;6.90;99.90
6903;DHT22;20232;49.408;8.702;2022-11-20T20:29:17;6.90;99.90
6903;DHT22;20232;49.408;8.702;2022-11-20T20:31:45;6.90;99.90
6903;DHT22;20232;49.408;8.702;2022-11-20T20:34:10;6.80;99.90
6903;DHT22;20232;49.408;8.702;2022-11-20T20:36:36;6.90;99.90
6903;DHT22;20232;49.408;8.702;2022-11-20T20:39:01;6.80;99.90
6903;DHT22;20232;49.408;8.702;2022-11-20T20:41:27;6.80;99.90
6903;DHT22;20232;49.408;8.702;2022-11-20T20:43:53;6.80;99.90
6903;DHT22;20232;49.408;8.702;2022-11-20T20:46:38;6.80;99.90
6903;DHT22;20232;49.408;8.702;2022-11-20T20:49:04;6.80;99.90
6903;DHT22;20232;49.408;8.702;2022-11-20T20:51:29;6.80;99.90
6903;DHT22;20232;49.408;8.702;2022-11-20T20:53:55;6.80;99.90
6903;DHT22;20232;49.408;8.702;2022-11-20T20:56:21;6.90;99.90
6903;DHT22;20232;49.408;8.702;2022-11-20T20:58:46;6.90;99.90
6903;DHT22;20232;49.408;8.702;2022-11-20T21:01:14;6.90;99.90
6903;DHT22;20232;49.408;8.702;2022-11-20T21:03:40;6.90;99.90
6903;DHT22;20232;49.408;8.702;2022-11-20T21:06:07;6.90;99.90
6903;DHT22;20232;49.408;8.702;2022-11-20T21:08:34;6.80;99.90
6903;DHT22;20232;49.408;8.702;2022-11-20T21:11:03;6.80;99.90
6903;DHT22;20232;49.408;8.702;2022-11-20T21:13:29;6.80;99.90
6903;DHT22;20232;49.408;8.702;2022-11-20T21:15:55;6.90;99.90
6903;DHT22;20232;49.408;8.702;2022-11-20T21:18:22;6.90;99.90
6903;DHT22;20232;49.408;8.702;2022-11-20T21:20:48;6.90;99.90
6903;DHT22;20232;49.408;8.702;2022-11-20T21:23:35;6.90;99.90
6903;DHT22;20232;49.408;8.702;2022-11-20T21:26:04;6.90;99.90
6903;DHT22;20232;49.408;8.702;2022-11-20T21:28:31;6.90;99.90
6903;DHT22;20232;49.408;8.702;2022-11-20T21:31:05;6.90;99.90
6903;DHT22;20232;49.408;8.702;2022-11-20T21:33:41;6.90;99.90
6903;DHT22;20232;49.408;8.702;2022-11-20T21:36:08;6.90;99.90
6903;DHT22;20232;49.408;8.702;2022-11-20T21:38:34;6.90;99.90
6903;DHT22;20232;49.408;8.702;2022-11-20T21:41:00;6.90;99.90
6903;DHT22;20232;49.408;8.702;2022-11-20T21:43:27;7.00;99.90
6903;DHT22;20232;49.408;8.702;2022-11-20T21:45:53;6.90;99.90
6903;DHT22;20232;49.408;8.702;2022-11-20T21:48:21;6.90;99.90
6903;DHT22;20232;49.408;8.702;2022-11-20T21:50:47;6.90;99.90
6903;DHT22;20232;49.408;8.702;2022-11-20T21:53:13;6.90;99.90
6903;DHT22;20232;49.408;8.702;2022-11-20T21:55:38;6.90;99.90
6903;DHT22;20232;49.408;8.702;2022-11-20T21:58:04;6.90;99.90
6903;DHT22;20232;49.408;8.702;2022-11-20T22:00:29;7.00;99.90
6903;DHT22;20232;49.408;8.702;2022-11-20T22:02:55;6.90;99.90
6903;DHT22;20232;49.408;8.702;2022-11-20T22:05:20;6.90;99.90
6903;DHT22;20232;49.408;8.702;2022-11-20T22:07:46;7.00;99.90
6903;DHT22;20232;49.408;8.702;2022-11-20T22:10:12;6.90;99.90
6903;DHT22;20232;49.408;8.702;2022-11-20T22:12:37;7.00;99.90
6903;DHT22;20232;49.408;8.702;2022-11-20T22:15:03;7.00;99.90
6903;DHT22;20232;49.408;8.702;2022-11-20T22:17:29;7.00;99.90
6903;DHT22;20232;49.408;8.702;2022-11-20T22:20:16;7.00;99.90
6903;DHT22;20232;49.408;8.702;2022-11-20T22:22:42;6.90;99.90
6903;DHT22;20232;49.408;8.702;2022-11-20T22:25:07;6.90;99.90
6903;DHT22;20232;49.408;8.702;2022-11-20T22:27:33;6.90;99.90
6903;DHT22;20232;49.408;8.702;2022-11-20T22:29:59;6.90;99.90
6903;DHT22;20232;49.408;8.702;2022-11-20T22:32:24;6.80;99.90
6903;DHT22;20232;49.408;8.702;2022-11-20T22:34:50;6.80;99.90
6903;DHT22;20232;49.408;8.702;2022-11-20T22:37:16;6.80;99.90
6903;DHT22;20232;49.408;8.702;2022-11-20T22:39:41;6.90;99.90
6903;DHT22;20232;49.408;8.702;2022-11-20T22:42:07;6.90;99.90
6903;DHT22;20232;49.408;8.702;2022-11-20T22:44:32;6.90;99.90
6903;DHT22;20232;49.408;8.702;2022-11-20T22:46:58;7.00;99.90
6903;DHT22;20232;49.408;8.702;2022-11-20T22:49:23;7.00;99.90